createdAt,value
2018-06-17T00:01:54.338Z,18.00
2018-06-17T00:04:24.518Z,18.00
2018-06-17T00:06:54.882Z,18.00
2018-06-17T00:09:25.317Z,18.00
2018-06-17T00:11:55.472Z,18.00
2018-06-17T00:14:25.857Z,18.00
2018-06-17T00:16:56.021Z,18.00
2018-06-17T00:21:56.791Z,18.10
2018-06-17T00:24:27.273Z,18.00
2018-06-17T00:29:27.499Z,18.00
2018-06-17T00:31:57.730Z,18.00
2018-06-17T00:36:58.234Z,17.90
2018-06-17T00:39:28.595Z,18.00
2018-06-17T00:41:58.766Z,17.90
2018-06-17T00:44:29.043Z,17.80
2018-06-17T00:46:59.212Z,17.80
2018-06-17T00:49:29.597Z,17.70
2018-06-17T00:51:59.754Z,17.60
2018-06-17T00:54:30.228Z,17.70
2018-06-17T00:57:17.343Z,17.50
2018-06-17T00:59:47.679Z,17.50
2018-06-17T01:02:17.853Z,17.50
2018-06-17T01:04:48.235Z,17.50
2018-06-17T01:07:18.449Z,17.50
2018-06-17T01:09:48.783Z,17.40
2018-06-17T01:14:49.027Z,17.40
2018-06-17T01:17:19.348Z,17.40
2018-06-17T01:19:49.771Z,17.30
2018-06-17T01:22:20.198Z,17.30
2018-06-17T01:24:50.407Z,17.30
2018-06-17T01:27:20.742Z,17.30
2018-06-17T01:29:50.950Z,17.20
2018-06-17T01:32:21.408Z,17.20
2018-06-17T01:34:51.934Z,17.10
2018-06-17T01:37:22.360Z,17.20
2018-06-17T01:39:52.519Z,17.20
2018-06-17T01:42:23.021Z,17.10
2018-06-17T01:44:53.205Z,17.10
2018-06-17T01:47:23.450Z,17.20
2018-06-17T01:49:53.643Z,17.20
2018-06-17T01:52:24.107Z,17.30
2018-06-17T01:54:54.267Z,17.30
2018-06-17T01:57:24.650Z,17.20
2018-06-17T01:59:54.815Z,17.20
2018-06-17T02:02:25.301Z,17.20
2018-06-17T02:05:00.622Z,17.20
2018-06-17T02:07:36.094Z,17.20
2018-06-17T02:10:11.483Z,17.10
2018-06-17T02:12:41.963Z,17.30
2018-06-17T02:20:12.167Z,17.30
2018-06-17T02:22:42.670Z,17.30
2018-06-17T02:25:12.838Z,17.30
2018-06-17T02:27:43.292Z,17.30
2018-06-17T02:30:13.631Z,17.30
2018-06-17T02:35:14.510Z,17.30
2018-06-17T02:37:44.955Z,17.30
2018-06-17T02:40:15.336Z,17.30
2018-06-17T02:42:45.507Z,17.20
2018-06-17T02:45:21.194Z,17.20
2018-06-17T02:47:56.950Z,17.20
2018-06-17T02:50:32.466Z,17.20
2018-06-17T02:53:08.048Z,17.20
2018-06-17T02:55:38.211Z,17.10
2018-06-17T02:58:08.601Z,17.10
2018-06-17T03:00:38.838Z,17.10
2018-06-17T03:03:09.247Z,17.00
2018-06-17T03:05:39.419Z,17.10
2018-06-17T03:08:09.808Z,17.00
2018-06-17T03:10:40.340Z,17.10
2018-06-17T03:13:10.524Z,17.10
2018-06-17T03:15:40.982Z,17.00
2018-06-17T03:18:11.144Z,17.00
2018-06-17T03:20:41.555Z,17.00
2018-06-17T03:23:11.770Z,16.90
2018-06-17T03:28:22.509Z,16.90
2018-06-17T03:30:58.082Z,16.90
2018-06-17T03:33:33.399Z,16.90
2018-06-17T03:36:11.436Z,16.90
2018-06-17T03:38:42.357Z,17.00
2018-06-17T03:41:13.210Z,17.00
2018-06-17T03:43:43.403Z,17.00
2018-06-17T03:46:13.757Z,17.00
2018-06-17T03:48:43.928Z,17.00
2018-06-17T03:51:14.299Z,17.00
2018-06-17T03:53:44.470Z,17.10
2018-06-17T03:56:14.782Z,17.20
2018-06-17T03:58:44.950Z,17.30
2018-06-17T04:01:15.297Z,17.30
2018-06-17T04:03:45.498Z,17.30
2018-06-17T04:06:15.845Z,17.30
2018-06-17T04:11:16.060Z,17.10
2018-06-17T04:13:46.252Z,17.20
2018-06-17T04:16:16.633Z,17.20
2018-06-17T04:18:46.815Z,17.30
2018-06-17T04:21:17.279Z,17.30
2018-06-17T04:26:17.423Z,17.40
2018-06-17T04:28:47.744Z,17.50
2018-06-17T04:31:17.918Z,17.50
2018-06-17T04:33:48.271Z,17.60
2018-06-17T04:36:18.637Z,17.60
2018-06-17T04:43:49.595Z,17.80
2018-06-17T04:48:49.837Z,18.00
2018-06-17T04:51:20.014Z,19.40
2018-06-17T04:53:50.375Z,21.30
2018-06-17T04:56:20.540Z,23.00
2018-06-17T04:58:50.928Z,24.50
2018-06-17T05:01:21.094Z,25.80
2018-06-17T05:03:51.475Z,26.40
2018-06-17T05:06:21.634Z,27.20
2018-06-17T05:08:51.939Z,27.60
2018-06-17T05:11:22.103Z,28.00
2018-06-17T05:13:52.402Z,28.20
2018-06-17T05:16:22.577Z,28.60
2018-06-17T05:18:53.028Z,28.70
2018-06-17T05:21:23.207Z,28.80
2018-06-17T05:23:53.680Z,27.10
2018-06-17T05:26:23.842Z,25.60
2018-06-17T05:28:54.332Z,25.00
2018-06-17T05:31:24.511Z,23.90
2018-06-17T05:33:54.983Z,23.20
2018-06-17T05:38:55.260Z,22.20
2018-06-17T05:41:32.309Z,22.40
2018-06-17T05:44:02.519Z,22.60
2018-06-17T05:46:33.281Z,22.30
2018-06-17T05:49:03.459Z,21.90
2018-06-17T05:51:34.449Z,21.50
2018-06-17T05:54:04.621Z,21.10
2018-06-17T05:56:35.076Z,20.50
2018-06-17T06:04:05.485Z,19.70
2018-06-17T06:06:35.883Z,19.90
2018-06-17T06:09:08.956Z,20.30
2018-06-17T06:11:39.427Z,20.50
2018-06-17T06:14:09.619Z,21.00
2018-06-17T06:16:40.032Z,20.90
2018-06-17T06:19:10.194Z,20.50
2018-06-17T06:21:40.608Z,20.20
2018-06-17T06:24:10.779Z,20.20
2018-06-17T06:26:41.159Z,20.20
2018-06-17T06:29:11.345Z,20.30
2018-06-17T06:31:41.793Z,20.20
2018-06-17T06:34:11.974Z,20.10
2018-06-17T06:36:42.506Z,19.90
2018-06-17T06:39:12.830Z,19.90
2018-06-17T06:41:43.291Z,19.90
2018-06-17T06:46:43.515Z,19.80
2018-06-17T06:49:13.955Z,19.70
2018-06-17T06:51:44.168Z,19.60
2018-06-17T06:54:14.597Z,19.70
2018-06-17T06:56:44.837Z,19.90
2018-06-17T06:59:15.243Z,20.20
2018-06-17T07:02:02.698Z,20.40
2018-06-17T07:04:49.931Z,20.70
2018-06-17T07:07:37.248Z,20.80
2018-06-17T07:10:22.071Z,21.10
2018-06-17T07:12:52.641Z,21.40
2018-06-17T07:15:39.923Z,22.10
2018-06-17T07:18:39.655Z,22.50
2018-06-17T07:21:10.483Z,23.50
2018-06-17T07:23:40.942Z,24.20
2018-06-17T07:29:22.839Z,23.70
2018-06-17T07:31:53.146Z,23.50
2018-06-17T07:34:22.889Z,24.30
2018-06-17T07:36:52.382Z,24.80
2018-06-17T07:39:31.955Z,24.30
2018-06-17T07:42:01.431Z,23.40
2018-06-17T07:44:30.871Z,22.90
2018-06-17T07:47:00.255Z,22.40
2018-06-17T07:49:48.391Z,21.50
2018-06-17T07:52:30.415Z,21.00
2018-06-17T07:55:00.067Z,20.80
2018-06-17T07:57:31.350Z,20.60
2018-06-17T08:00:01.174Z,20.70
2018-06-17T08:02:31.222Z,20.80
2018-06-17T08:05:01.693Z,20.90
2018-06-17T08:07:31.886Z,20.90
2018-06-17T08:10:02.344Z,21.50
2018-06-17T08:12:31.823Z,21.70
2018-06-17T08:15:01.472Z,21.90
2018-06-17T08:17:30.888Z,21.70
2018-06-17T08:20:00.482Z,21.70
2018-06-17T08:22:30.507Z,21.60
2018-06-17T08:25:00.209Z,21.80
2018-06-17T08:27:30.366Z,21.70
2018-06-17T08:30:00.746Z,22.00
2018-06-17T08:32:30.923Z,22.00
2018-06-17T08:35:01.390Z,21.90
2018-06-17T08:37:31.683Z,21.90
2018-06-17T08:40:02.045Z,21.80
2018-06-17T08:42:32.209Z,21.70
2018-06-17T08:45:02.594Z,21.40
2018-06-17T08:47:32.744Z,21.60
2018-06-17T08:50:03.146Z,21.90
2018-06-17T08:55:03.374Z,22.00
2018-06-17T08:57:33.130Z,21.90
2018-06-17T09:00:03.182Z,22.20
2018-06-17T09:02:33.551Z,22.20
2018-06-17T09:05:03.711Z,22.60
2018-06-17T09:07:34.184Z,22.60
2018-06-17T09:10:04.365Z,22.30
2018-06-17T09:12:34.730Z,22.60
2018-06-17T09:15:04.931Z,22.60
2018-06-17T09:17:35.374Z,22.40
2018-06-17T09:20:05.550Z,22.10
2018-06-17T09:22:35.131Z,22.00
2018-06-17T09:25:05.418Z,21.90
2018-06-17T09:27:35.199Z,22.10
2018-06-17T09:32:33.678Z,22.40
2018-06-17T09:35:03.052Z,22.50
2018-06-17T09:37:32.813Z,22.20
2018-06-17T09:40:02.889Z,22.00
2018-06-17T09:42:34.138Z,22.00
2018-06-17T09:45:04.294Z,21.90
2018-06-17T09:47:34.638Z,21.70
2018-06-17T09:50:04.131Z,22.30
2018-06-17T09:52:33.487Z,22.40
2018-06-17T09:55:03.710Z,22.40
2018-06-17T09:57:33.195Z,22.40
2018-06-17T10:00:02.838Z,22.10
2018-06-17T10:02:32.905Z,22.40
2018-06-17T10:05:03.178Z,22.70
2018-06-17T10:07:33.322Z,22.80
2018-06-17T10:11:10.734Z,22.50
2018-06-17T10:13:42.367Z,22.00
2018-06-17T10:16:13.160Z,21.90
2018-06-17T10:18:43.582Z,22.20
2018-06-17T10:21:14.085Z,22.20
2018-06-17T10:26:13.557Z,22.10
2018-06-17T10:28:42.933Z,22.70
2018-06-17T10:31:13.287Z,22.90
2018-06-17T10:33:43.517Z,22.90
2018-06-17T10:36:14.138Z,23.10
2018-06-17T10:38:44.332Z,23.30
2018-06-17T10:41:14.793Z,23.30
2018-06-17T10:43:44.971Z,22.80
2018-06-17T10:46:15.234Z,22.40
2018-06-17T10:48:45.394Z,22.10
2018-06-17T10:51:15.900Z,22.20
2018-06-17T10:53:46.042Z,22.20
2018-06-17T10:56:16.474Z,22.40
2018-06-17T10:58:46.638Z,23.10
2018-06-17T11:01:17.034Z,23.50
2018-06-17T11:03:47.147Z,23.80
2018-06-17T11:06:17.519Z,24.00
2018-06-17T11:08:48.194Z,24.10
2018-06-17T11:11:18.585Z,23.80
2018-06-17T11:13:48.060Z,23.50
2018-06-17T11:16:18.631Z,23.20
2018-06-17T11:21:19.088Z,23.60
2018-06-17T11:26:20.188Z,24.50
2018-06-17T11:28:50.750Z,24.20
2018-06-17T11:31:20.902Z,23.70
2018-06-17T11:33:50.611Z,23.40
2018-06-17T11:38:50.156Z,23.20
2018-06-17T11:41:20.184Z,23.00
2018-06-17T11:43:49.782Z,22.90
2018-06-17T11:46:19.145Z,22.90
2018-06-17T11:51:17.881Z,23.10
2018-06-17T11:53:47.370Z,23.20
2018-06-17T11:58:46.676Z,23.80
2018-06-17T12:01:16.158Z,23.80
2018-06-17T12:03:45.816Z,23.50
2018-06-17T12:06:15.846Z,23.70
2018-06-17T12:08:45.543Z,23.60
2018-06-17T12:13:45.240Z,23.70
2018-06-17T12:16:14.730Z,23.80
2018-06-17T12:18:44.474Z,23.60
2018-06-17T12:21:14.783Z,23.70
2018-06-17T12:23:44.923Z,24.00
2018-06-17T12:26:15.238Z,23.90
2018-06-17T12:28:44.751Z,23.70
2018-06-17T12:33:44.120Z,23.80
2018-06-17T12:36:13.986Z,23.90
2018-06-17T12:38:44.061Z,24.00
2018-06-17T12:41:14.419Z,24.00
2018-06-17T12:43:44.564Z,23.90
2018-06-17T12:46:14.856Z,24.30
2018-06-17T12:48:45.019Z,24.10
2018-06-17T12:51:15.312Z,24.30
2018-06-17T12:53:45.478Z,24.10
2018-06-17T12:56:15.946Z,23.90
2018-06-17T12:58:46.095Z,23.80
2018-06-17T13:01:16.605Z,23.60
2018-06-17T13:03:46.771Z,23.30
2018-06-17T13:06:17.262Z,23.20
2018-06-17T13:08:47.966Z,23.20
2018-06-17T13:11:18.311Z,23.10
2018-06-17T13:13:48.462Z,22.90
2018-06-17T13:16:18.166Z,22.80
2018-06-17T13:18:47.568Z,22.80
2018-06-17T13:21:17.075Z,23.00
2018-06-17T13:23:46.614Z,22.90
2018-06-17T13:26:16.783Z,23.00
2018-06-17T13:28:46.974Z,23.10
2018-06-17T13:31:16.646Z,23.00
2018-06-17T13:33:46.015Z,23.10
2018-06-17T13:36:16.458Z,23.10
2018-06-17T13:41:15.873Z,23.60
2018-06-17T13:43:45.596Z,23.70
2018-06-17T13:48:45.824Z,23.50
2018-06-17T13:51:15.977Z,23.50
2018-06-17T13:53:46.262Z,23.40
2018-06-17T13:56:15.749Z,23.40
2018-06-17T13:58:45.334Z,23.20
2018-06-17T14:01:15.427Z,23.00
2018-06-17T14:03:45.126Z,22.70
2018-06-17T14:06:15.147Z,22.30
2018-06-17T14:08:45.662Z,21.80
2018-06-17T14:11:15.162Z,21.40
2018-06-17T14:13:44.794Z,21.10
2018-06-17T14:16:15.014Z,20.80
2018-06-17T14:18:44.622Z,20.50
2018-06-17T14:23:44.839Z,20.40
2018-06-17T14:26:14.994Z,20.40
2018-06-17T14:28:45.394Z,20.30
2018-06-17T14:31:15.594Z,20.30
2018-06-17T14:33:46.135Z,20.40
2018-06-17T14:36:16.643Z,20.50
2018-06-17T14:38:46.791Z,20.80
2018-06-17T14:41:18.651Z,21.00
2018-06-17T14:43:53.994Z,21.30
2018-06-17T14:49:05.088Z,21.70
2018-06-17T14:51:51.002Z,21.30
2018-06-17T14:54:21.407Z,21.10
2018-06-17T14:56:51.649Z,20.70
2018-06-17T14:59:22.038Z,20.50
2018-06-17T15:01:52.210Z,20.40
2018-06-17T15:04:22.611Z,20.30
2018-06-17T15:09:22.872Z,19.90
2018-06-17T15:11:53.006Z,19.70
2018-06-17T15:14:23.411Z,19.60
2018-06-17T15:16:53.567Z,19.40
2018-06-17T15:19:24.049Z,19.30
2018-06-17T15:21:54.408Z,19.20
2018-06-17T15:24:24.542Z,19.00
2018-06-17T15:26:55.015Z,19.00
2018-06-17T15:29:25.189Z,19.00
2018-06-17T15:32:00.992Z,19.50
2018-06-17T15:34:36.356Z,19.90
2018-06-17T15:37:12.157Z,20.10
2018-06-17T15:39:59.665Z,20.50
2018-06-17T15:42:29.994Z,20.80
2018-06-17T15:45:00.163Z,20.80
2018-06-17T15:47:30.508Z,20.70
2018-06-17T15:50:00.654Z,20.80
2018-06-17T15:52:31.036Z,20.80
2018-06-17T15:55:01.255Z,20.90
2018-06-17T15:57:31.595Z,20.70
2018-06-17T16:00:01.828Z,20.60
2018-06-17T16:02:32.232Z,20.40
2018-06-17T16:05:02.403Z,20.50
2018-06-17T16:07:32.781Z,20.60
2018-06-17T16:10:02.974Z,20.50
2018-06-17T16:12:38.552Z,20.40
2018-06-17T16:15:13.971Z,20.30
2018-06-17T16:18:51.080Z,20.10
2018-06-17T16:21:21.228Z,20.00
2018-06-17T16:23:51.655Z,19.90
2018-06-17T16:26:21.806Z,20.00
2018-06-17T16:28:52.110Z,20.00
2018-06-17T16:31:22.275Z,19.90
2018-06-17T16:33:52.575Z,19.90
2018-06-17T16:36:22.872Z,19.90
2018-06-17T16:38:53.189Z,19.90
2018-06-17T16:41:23.350Z,19.80
2018-06-17T16:43:53.834Z,19.70
2018-06-17T16:46:23.970Z,19.80
2018-06-17T16:48:54.804Z,19.70
2018-06-17T16:54:05.687Z,19.40
2018-06-17T16:56:41.210Z,19.40
2018-06-17T16:59:16.872Z,19.40
2018-06-17T17:04:17.327Z,19.20
2018-06-17T17:06:47.635Z,19.20
2018-06-17T17:09:18.070Z,19.30
2018-06-17T17:11:48.247Z,19.30
2018-06-17T17:14:18.775Z,19.40
2018-06-17T17:16:48.927Z,19.30
2018-06-17T17:19:19.274Z,19.20
2018-06-17T17:21:50.436Z,19.20
2018-06-17T17:24:20.835Z,19.20
2018-06-17T17:26:51.026Z,19.20
2018-06-17T17:29:21.513Z,19.10
2018-06-17T17:31:56.934Z,19.00
2018-06-17T17:34:32.584Z,18.90
2018-06-17T17:37:08.106Z,18.80
2018-06-17T17:42:20.811Z,18.80
2018-06-17T17:44:56.426Z,19.00
2018-06-17T17:47:29.082Z,19.00
2018-06-17T17:49:59.531Z,19.10
2018-06-17T17:52:29.801Z,19.20
2018-06-17T17:55:00.167Z,19.30
2018-06-17T17:57:30.323Z,19.40
2018-06-17T18:00:00.635Z,19.40
2018-06-17T18:02:30.779Z,19.30
2018-06-17T18:05:01.158Z,19.10
2018-06-17T18:07:37.634Z,18.90
2018-06-17T18:10:07.954Z,18.80
2018-06-17T18:12:38.235Z,18.80
2018-06-17T18:15:09.137Z,18.70
2018-06-17T18:17:39.299Z,18.70
2018-06-17T18:20:09.671Z,18.70
2018-06-17T18:22:39.997Z,18.60
2018-06-17T18:25:15.502Z,18.50
2018-06-17T18:27:51.134Z,18.50
2018-06-17T18:30:26.450Z,18.50
2018-06-17T18:33:02.076Z,18.50
2018-06-17T18:35:37.539Z,18.40
2018-06-17T18:38:08.078Z,18.50
2018-06-17T18:40:38.280Z,18.50
2018-06-17T18:43:08.709Z,18.40
2018-06-17T18:45:38.770Z,18.40
2018-06-17T18:48:09.262Z,18.30
2018-06-17T18:50:39.516Z,18.30
2018-06-17T18:53:10.008Z,18.20
2018-06-17T18:55:40.189Z,18.20
2018-06-17T18:58:10.656Z,18.10
2018-06-17T19:00:41.016Z,18.00
2018-06-17T19:03:11.533Z,18.00
2018-06-17T19:08:16.977Z,18.00
2018-06-17T19:10:52.524Z,17.90
2018-06-17T19:13:28.060Z,17.90
2018-06-17T19:16:04.946Z,17.80
2018-06-17T19:18:35.401Z,17.80
2018-06-17T19:23:35.549Z,17.70
2018-06-17T19:26:05.918Z,17.70
2018-06-17T19:28:36.387Z,17.70
2018-06-17T19:31:06.554Z,17.70
2018-06-17T19:33:36.924Z,17.70
2018-06-17T19:38:37.480Z,17.60
2018-06-17T19:41:07.856Z,17.60
2018-06-17T19:43:37.972Z,17.50
2018-06-17T19:46:08.411Z,17.50
2018-06-17T19:48:38.543Z,17.50
2018-06-17T19:51:14.322Z,17.40
2018-06-17T19:53:49.871Z,17.40
2018-06-17T19:56:25.506Z,17.40
2018-06-17T19:59:00.957Z,17.30
2018-06-17T20:04:01.317Z,17.20
2018-06-17T20:06:31.742Z,17.20
2018-06-17T20:11:31.754Z,17.20
2018-06-17T20:14:02.042Z,17.20
2018-06-17T20:16:32.303Z,17.20
2018-06-17T20:19:02.507Z,17.20
2018-06-17T20:21:32.851Z,17.20
2018-06-17T20:24:03.052Z,17.20
2018-06-17T20:26:33.513Z,17.10
2018-06-17T20:29:03.691Z,17.10
2018-06-17T20:31:36.019Z,17.10
2018-06-17T20:34:11.752Z,17.00
2018-06-17T20:41:58.070Z,16.90
2018-06-17T20:44:28.236Z,16.90
2018-06-17T20:46:58.553Z,16.70
2018-06-17T20:49:28.715Z,16.70
2018-06-17T20:51:59.005Z,16.60
2018-06-17T20:54:29.175Z,16.60
2018-06-17T20:56:59.547Z,16.50
2018-06-17T20:59:29.951Z,16.40
2018-06-17T21:04:30.104Z,16.30
2018-06-17T21:07:00.291Z,16.20
2018-06-17T21:09:30.654Z,16.20
2018-06-17T21:12:00.814Z,16.10
2018-06-17T21:14:31.293Z,16.00
2018-06-17T21:22:11.927Z,15.90
2018-06-17T21:24:47.443Z,15.90
2018-06-17T21:29:53.207Z,15.80
2018-06-17T21:32:23.550Z,15.70
2018-06-17T21:34:53.965Z,15.70
2018-06-17T21:37:24.463Z,15.60
2018-06-17T21:39:54.834Z,15.60
2018-06-17T21:42:25.010Z,15.60
2018-06-17T21:44:55.382Z,15.60
2018-06-17T21:49:56.418Z,15.70
2018-06-17T21:52:26.650Z,15.70
2018-06-17T21:54:57.374Z,15.90
2018-06-17T21:57:27.883Z,15.90
2018-06-17T21:59:58.358Z,16.00
2018-06-17T22:02:28.496Z,16.00
2018-06-17T22:04:58.891Z,16.10
2018-06-17T22:07:29.312Z,16.20
2018-06-17T22:10:04.716Z,16.20
2018-06-17T22:13:10.442Z,16.30
2018-06-17T22:15:46.164Z,16.40
2018-06-17T22:18:16.339Z,16.50
2018-06-17T22:20:47.014Z,16.60
2018-06-17T22:25:47.258Z,16.60
2018-06-17T22:30:47.496Z,16.60
2018-06-17T22:33:17.671Z,16.60
2018-06-17T22:35:48.248Z,16.60
2018-06-17T22:38:18.504Z,16.70
2018-06-17T22:40:48.804Z,16.70
2018-06-17T22:43:19.245Z,16.70
2018-06-17T22:45:49.418Z,16.70
2018-06-17T22:48:19.870Z,16.70
2018-06-17T22:50:50.056Z,16.70
2018-06-17T22:53:37.429Z,16.60
2018-06-17T22:58:48.242Z,16.70
2018-06-17T23:03:26.437Z,16.60
2018-06-17T23:06:01.967Z,16.40
2018-06-17T23:08:37.531Z,16.20
2018-06-17T23:11:07.937Z,16.10
2018-06-17T23:13:38.389Z,16.10
2018-06-17T23:16:08.728Z,16.00
2018-06-17T23:18:39.138Z,15.90
2018-06-17T23:23:39.384Z,15.80
2018-06-17T23:26:09.700Z,15.80
2018-06-17T23:28:40.034Z,15.70
2018-06-17T23:31:10.271Z,15.60
2018-06-17T23:33:40.888Z,15.60
2018-06-17T23:36:11.063Z,15.50
2018-06-17T23:38:41.745Z,15.50
2018-06-17T23:41:15.184Z,15.40
2018-06-17T23:43:47.695Z,15.40
2018-06-17T23:46:23.105Z,15.40
2018-06-17T23:48:58.951Z,15.30
2018-06-17T23:51:34.327Z,15.40
2018-06-17T23:54:09.822Z,15.40
2018-06-17T23:56:39.974Z,15.40
2018-06-17T23:59:10.378Z,15.30
